Chomedey, Canada
Current Conditions -  °F | °C
As of 6:00 PM on Wednesday 17 Dec 2014 (Local Time) from CYUL Reporting Station
Light Snow Light Snow  
Wind Chill: 27°   Ceiling: 300
Heat Index: 32°   Visibility: 3mi
Dew Point: 32°   Wind: 5mph
Humidity: 100%   Direction: 360°N
Pressure: 29.78"   Gusts: NA
Location:  45.55°N, 73.73°W
Report Text: CYUL 172300Z 36004KT 3SM -SN BR BKN003 OVC006 00/M00 A2978 RMK SF6SF2 SLP086
Loading
Personal Weather Stations






























Interactive Weather Map New forecast layout! Learn more

10-Day Weather Forecast

Advertisements
Track Severe Weather on mobile